createdAt,value
2024-05-09T00:02:06.409Z,16.40
2024-05-09T00:07:08.373Z,16.30
2024-05-09T00:12:10.420Z,16.20
2024-05-09T00:17:12.520Z,16.20
2024-05-09T00:22:14.679Z,16.10
2024-05-09T00:27:16.726Z,16.10
2024-05-09T00:32:18.771Z,16.10
2024-05-09T00:37:21.925Z,16.10
2024-05-09T00:42:23.938Z,16.20
2024-05-09T00:47:25.978Z,16.10
2024-05-09T00:52:29.979Z,16.10
2024-05-09T00:57:32.388Z,16.10
2024-05-09T01:02:34.586Z,16.10
2024-05-09T01:07:37.019Z,16.10
2024-05-09T01:12:39.211Z,16.00
2024-05-09T01:17:41.732Z,16.10
2024-05-09T01:22:44.875Z,16.10
2024-05-09T01:27:46.863Z,16.10
2024-05-09T01:32:49.104Z,16.10
2024-05-09T01:37:51.438Z,16.20
2024-05-09T01:42:53.416Z,16.10
2024-05-09T01:47:55.574Z,16.10
2024-05-09T01:52:57.725Z,16.00
2024-05-09T01:57:59.654Z,16.00
2024-05-09T02:03:02.106Z,16.00
2024-05-09T02:08:05.199Z,16.00
2024-05-09T02:13:08.106Z,16.00
2024-05-09T02:18:10.776Z,16.00
2024-05-09T02:23:13.838Z,15.90
2024-05-09T02:28:15.860Z,15.90
2024-05-09T02:33:18.068Z,15.90
2024-05-09T02:38:20.188Z,15.80
2024-05-09T02:43:22.248Z,15.90
2024-05-09T02:48:24.560Z,15.90
2024-05-09T02:53:26.663Z,16.00
2024-05-09T02:58:28.744Z,16.00
2024-05-09T03:03:30.976Z,16.00
2024-05-09T03:08:33.414Z,16.00
2024-05-09T03:13:35.434Z,16.00
2024-05-09T03:18:38.509Z,16.10
2024-05-09T03:23:44.216Z,16.10
2024-05-09T03:28:46.455Z,16.10
2024-05-09T03:33:48.732Z,16.10
2024-05-09T03:38:51.038Z,16.10
2024-05-09T03:43:53.073Z,16.00
2024-05-09T03:48:56.434Z,16.10
2024-05-09T03:53:58.567Z,16.10
2024-05-09T03:59:01.590Z,16.10
2024-05-09T04:04:03.726Z,16.10
2024-05-09T04:09:05.953Z,16.10
2024-05-09T04:14:07.951Z,16.10
2024-05-09T04:19:10.110Z,16.10
2024-05-09T04:24:12.139Z,16.10
2024-05-09T04:29:14.124Z,16.10
2024-05-09T04:34:16.359Z,16.20
2024-05-09T04:39:18.434Z,16.20
2024-05-09T04:44:20.884Z,16.20
2024-05-09T04:49:23.089Z,16.30
2024-05-09T04:54:33.820Z,16.20
2024-05-09T04:59:38.440Z,16.20
2024-05-09T05:04:40.422Z,16.20
2024-05-09T05:09:42.435Z,16.20
2024-05-09T05:14:44.393Z,16.30
2024-05-09T05:19:49.512Z,16.30
2024-05-09T05:24:51.934Z,16.30
2024-05-09T05:29:53.889Z,16.20
2024-05-09T05:34:55.896Z,16.20
2024-05-09T05:39:58.263Z,16.10
2024-05-09T05:45:00.337Z,16.20
2024-05-09T05:50:02.989Z,16.20
2024-05-09T05:55:05.994Z,16.20
2024-05-09T06:00:09.837Z,16.20
2024-05-09T06:05:16.192Z,16.20
2024-05-09T06:10:25.175Z,16.30
2024-05-09T06:15:31.262Z,16.30
2024-05-09T06:20:43.934Z,16.30
2024-05-09T06:25:46.545Z,16.30
2024-05-09T06:30:48.608Z,16.30
2024-05-09T06:35:50.656Z,16.40
2024-05-09T06:40:54.539Z,16.30
2024-05-09T06:45:57.087Z,16.40
2024-05-09T06:51:04.531Z,16.40
2024-05-09T06:56:07.867Z,16.40
2024-05-09T07:01:10.137Z,16.40
2024-05-09T07:06:12.578Z,16.40
2024-05-09T07:11:15.059Z,16.50
2024-05-09T07:16:17.393Z,16.50
2024-05-09T07:21:19.891Z,16.60
2024-05-09T07:26:22.221Z,16.70
2024-05-09T07:31:28.219Z,16.70
2024-05-09T07:36:30.706Z,16.70
2024-05-09T07:41:32.845Z,16.80
2024-05-09T07:47:36.466Z,16.80
2024-05-09T07:53:21.877Z,16.80
2024-05-09T07:57:19.512Z,16.90
2024-05-09T08:02:21.842Z,17.00
2024-05-09T08:07:23.941Z,17.00
2024-05-09T08:12:25.970Z,17.10
2024-05-09T08:17:30.522Z,17.20
2024-05-09T08:22:32.764Z,17.20
2024-05-09T08:27:34.809Z,17.30
2024-05-09T08:32:38.736Z,17.40
2024-05-09T08:37:42.375Z,17.40
2024-05-09T08:42:52.948Z,17.40
2024-05-09T08:47:56.221Z,17.40
2024-05-09T08:52:58.506Z,17.50
2024-05-09T08:58:03.810Z,17.60
2024-05-09T09:03:09.310Z,17.70
2024-05-09T09:08:11.608Z,17.70
2024-05-09T09:13:13.970Z,17.80
2024-05-09T09:18:17.323Z,17.90
2024-05-09T09:23:20.056Z,18.10
2024-05-09T09:28:23.496Z,18.10
2024-05-09T09:33:26.441Z,18.30
2024-05-09T09:38:32.359Z,18.40
2024-05-09T09:43:35.171Z,18.60
2024-05-09T09:48:39.858Z,18.70
2024-05-09T09:53:44.009Z,18.80
2024-05-09T09:58:48.202Z,18.90
2024-05-09T10:03:50.405Z,18.90
2024-05-09T10:08:52.833Z,18.90
2024-05-09T10:13:57.475Z,18.90
2024-05-09T10:18:59.751Z,19.00
2024-05-09T10:24:07.067Z,19.00
2024-05-09T10:29:17.672Z,19.10
2024-05-09T10:34:21.446Z,19.10
2024-05-09T10:39:25.466Z,19.20
2024-05-09T10:44:27.479Z,19.20
2024-05-09T10:49:29.580Z,19.30
2024-05-09T10:54:38.743Z,19.40
2024-05-09T10:59:43.013Z,19.50
2024-05-09T11:04:45.412Z,19.80
2024-05-09T11:09:48.347Z,20.00
2024-05-09T11:14:54.174Z,20.20
2024-05-09T11:19:56.193Z,20.50
2024-05-09T11:24:58.743Z,20.60
2024-05-09T11:30:01.771Z,20.60
2024-05-09T11:35:03.884Z,20.70
2024-05-09T11:40:11.465Z,20.80
2024-05-09T11:45:15.645Z,20.90
2024-05-09T11:50:26.793Z,21.10
2024-05-09T11:55:36.683Z,21.30
2024-05-09T12:00:39.110Z,21.70
2024-05-09T12:05:41.320Z,22.10
2024-05-09T12:10:43.564Z,22.40
2024-05-09T12:15:45.649Z,22.70
2024-05-09T12:20:47.704Z,22.90
2024-05-09T12:25:49.913Z,23.00
2024-05-09T12:30:52.029Z,22.90
2024-05-09T12:35:54.036Z,23.20
2024-05-09T12:40:56.259Z,23.40
2024-05-09T12:45:58.463Z,23.50
2024-05-09T12:51:00.475Z,23.40
2024-05-09T12:56:04.312Z,23.20
2024-05-09T13:01:07.379Z,23.30
2024-05-09T13:06:09.802Z,23.40
2024-05-09T13:11:12.093Z,23.50
2024-05-09T13:16:14.204Z,23.70
2024-05-09T13:21:16.325Z,23.90
2024-05-09T13:26:18.402Z,24.00
2024-05-09T13:31:20.828Z,24.20
2024-05-09T13:36:23.000Z,24.20
2024-05-09T13:41:25.007Z,24.20
2024-05-09T13:46:27.040Z,24.20
2024-05-09T13:51:29.151Z,24.30
2024-05-09T13:56:31.199Z,24.40
2024-05-09T14:01:33.331Z,24.70
2024-05-09T14:06:36.425Z,24.70
2024-05-09T14:11:38.416Z,24.70
2024-05-09T14:16:41.798Z,24.60
2024-05-09T14:21:43.965Z,24.60
2024-05-09T14:26:45.946Z,24.70
2024-05-09T14:31:47.941Z,24.60
2024-05-09T14:36:50.101Z,24.60
2024-05-09T14:41:52.120Z,24.40
2024-05-09T14:46:54.206Z,24.20
2024-05-09T14:51:56.232Z,24.20
2024-05-09T14:56:58.286Z,24.10
2024-05-09T15:02:00.387Z,24.00
2024-05-09T15:07:02.494Z,23.90
2024-05-09T15:12:04.971Z,23.90
2024-05-09T15:17:07.013Z,23.90
2024-05-09T15:22:11.706Z,24.10
2024-05-09T15:27:14.008Z,24.20
2024-05-09T15:32:16.024Z,24.40
2024-05-09T15:37:18.356Z,24.50
2024-05-09T15:42:20.473Z,24.50
2024-05-09T15:47:22.602Z,24.50
2024-05-09T15:52:24.591Z,24.40
2024-05-09T15:57:26.540Z,24.30
2024-05-09T16:02:28.637Z,24.50
2024-05-09T16:07:30.810Z,24.40
2024-05-09T16:12:32.814Z,24.40
2024-05-09T16:17:35.226Z,24.40
2024-05-09T16:22:37.596Z,24.20
2024-05-09T16:27:39.618Z,24.10
2024-05-09T16:32:44.024Z,24.00
2024-05-09T16:37:46.094Z,23.90
2024-05-09T16:42:48.094Z,24.00
2024-05-09T16:47:50.380Z,24.00
2024-05-09T16:52:52.411Z,23.90
2024-05-09T16:57:55.509Z,23.80
2024-05-09T17:02:57.632Z,23.70
2024-05-09T17:07:59.690Z,23.70
2024-05-09T17:13:02.487Z,23.60
2024-05-09T17:18:07.053Z,23.50
2024-05-09T17:23:13.614Z,23.40
2024-05-09T17:28:16.460Z,23.20
2024-05-09T17:33:18.727Z,23.10
2024-05-09T17:38:23.337Z,23.00
2024-05-09T17:43:25.570Z,22.90
2024-05-09T17:48:27.805Z,22.90
2024-05-09T17:53:29.805Z,22.80
2024-05-09T17:58:31.879Z,22.60
2024-05-09T18:03:34.312Z,22.50
2024-05-09T18:08:36.403Z,22.50
2024-05-09T18:13:38.352Z,22.60
2024-05-09T18:18:40.872Z,22.60
2024-05-09T18:23:42.996Z,22.70
2024-05-09T18:28:45.153Z,22.60
2024-05-09T18:33:47.316Z,22.50
2024-05-09T18:38:49.440Z,22.50
2024-05-09T18:43:51.491Z,22.30
2024-05-09T18:48:53.826Z,22.30
2024-05-09T18:53:55.909Z,22.30
2024-05-09T18:58:57.826Z,22.20
2024-05-09T19:03:59.970Z,22.30
2024-05-09T19:09:02.791Z,22.30
2024-05-09T19:14:06.730Z,22.30
2024-05-09T19:19:09.996Z,22.30
2024-05-09T19:24:12.132Z,22.20
2024-05-09T19:29:14.103Z,22.20
2024-05-09T19:34:16.771Z,22.20
2024-05-09T19:39:18.888Z,22.10
2024-05-09T19:44:20.914Z,22.00
2024-05-09T19:49:23.168Z,21.90
2024-05-09T19:54:25.219Z,21.80
2024-05-09T19:59:27.150Z,21.60
2024-05-09T20:04:29.206Z,21.50
2024-05-09T20:09:31.258Z,21.50
2024-05-09T20:14:33.340Z,21.40
2024-05-09T20:19:35.858Z,21.40
2024-05-09T20:24:38.288Z,21.30
2024-05-09T20:29:40.360Z,21.20
2024-05-09T20:34:43.265Z,21.10
2024-05-09T20:39:45.338Z,20.90
2024-05-09T20:44:50.180Z,20.70
2024-05-09T20:49:52.606Z,20.60
2024-05-09T20:54:54.661Z,20.50
2024-05-09T20:59:56.744Z,20.30
2024-05-09T21:04:58.963Z,19.90
2024-05-09T21:10:01.251Z,19.60
2024-05-09T21:15:03.338Z,19.10
2024-05-09T21:20:11.418Z,18.90
2024-05-09T21:25:16.455Z,18.70
2024-05-09T21:30:27.374Z,18.40
2024-05-09T21:35:34.892Z,18.30
2024-05-09T21:40:38.131Z,18.40
2024-05-09T21:45:40.604Z,18.20
2024-05-09T21:50:42.933Z,18.00
2024-05-09T21:55:46.512Z,17.90
2024-05-09T22:00:48.947Z,17.90
2024-05-09T22:05:51.100Z,17.80
2024-05-09T22:10:53.254Z,17.70
2024-05-09T22:15:55.437Z,17.60
2024-05-09T22:20:57.423Z,17.60
2024-05-09T22:25:59.358Z,17.60
2024-05-09T22:31:01.373Z,17.60
2024-05-09T22:36:03.443Z,17.50
2024-05-09T22:41:09.175Z,17.40
2024-05-09T22:46:11.372Z,17.40
2024-05-09T22:51:13.394Z,17.40
2024-05-09T22:56:25.495Z,17.40
2024-05-09T23:01:27.789Z,17.50
2024-05-09T23:06:31.661Z,17.40
2024-05-09T23:11:33.707Z,17.30
2024-05-09T23:16:35.902Z,17.30
2024-05-09T23:21:40.958Z,17.30
2024-05-09T23:26:43.462Z,17.30
2024-05-09T23:31:45.481Z,17.20
2024-05-09T23:36:47.502Z,17.20
2024-05-09T23:41:49.453Z,17.20
2024-05-09T23:46:51.493Z,17.20
2024-05-09T23:51:53.535Z,17.20
2024-05-09T23:56:55.546Z,17.20
